メインページ
METAR-TAF:

METAR-TAF

空港 :

マラボ国際空港

マラボ, 赤道ギニア

緯度: 03-45-18N, 経度: 08-42-31E, 海抜: 23m

現時点の気象観測

当レポートは1時間14分前の08:00(UTC)に作成
変向風 2kt
気温 27°C
湿度 79%
気圧 1016 hPa
視程10km以上
高度1000ftの雲は散在している
高度4600ftの雲は散在している

METAR: FGSL 200800Z VRB02KT 9999 SCT010 SCT046 27/23 Q1016 NOSIG

時間: 10:14 (09:14 UTC)

予報

当レポートは4時間14分前の05:00(UTC)に作成
予報は20日の 06時(UTC)から 21日の 12時(UTC)まで有効
西/南西の風 8kt
視程10km以上
高度1000ftの雲は散在している
20日の 10時(UTC)から 20日の 16時(UTC)まで一時的に
高度1000ftの千切れ雲あり
高度2000ftの雲はほとんどない, 積乱雲.
激しい雷雨
20日の 22時(UTC)から 21日の 06時(UTC)まで一時的に
視程: 4000m
高度800ftの千切れ雲あり
高度1800ftの雲はほとんどない, 積乱雲.
激しい雷雨, 雨

TAF: FGSL 200500Z 2006/2112 24008KT 9999 SCT010 TEMPO 2010/2016 TS BKN010 FEW020CB TEMPO 2022/2106 4000 TSRA BKN008 FEW018CB

4,000以上の空港の気象観測と天気予報(METAR報とTAF報)

利用可能な観測所は地図上に黄色い丸と赤い丸で示す。

丸の上にカーソルを重ねると観測所名を参照できる。

次にクリックすると気象観測と天気予報を参照できる。

マップの切り替え:黒色「×」印の緑ボタンをクリックして拡大、「-」印の緑ボタンをクリックして縮小、緑色の三角印をクリックして隣りの地図に切り替え


METAR-TAF: